Time;durP1;ratioP1;P1;durP2;ratioP2;P2;SDS_P1;SDS_P2;PMS_P1;PMS_P2;Temp;Humidity;BMP_temperature;BMP_pressure;BME280_temperature;BME280_humidity;BME280_pressure;Samples;Min_cycle;Max_cycle;Signal;HPM_P1;HPM_P2
2022/04/05 00:02:20;;;;;;;6.88;5.25;;;7.60;86.00;;;;;;5033782;28;20034;-78
2022/04/05 00:04:47;;;;;;;6.53;4.40;;;7.60;86.30;;;;;;5015870;28;20048;-79
2022/04/05 00:07:13;;;;;;;5.65;5.15;;;7.60;87.20;;;;;;5015596;28;20040;-78
2022/04/05 00:09:39;;;;;;;6.60;5.90;;;7.60;88.80;;;;;;5038135;28;20025;-78
2022/04/05 00:12:05;;;;;;;4.93;4.00;;;7.50;88.60;;;;;;5036549;28;20041;-79
2022/04/05 00:14:32;;;;;;;12.05;4.50;;;7.60;87.20;;;;;;5018175;28;20033;-78
2022/04/05 00:16:58;;;;;;;6.78;5.10;;;7.60;87.30;;;;;;5017519;28;20033;-79
2022/04/05 00:19:25;;;;;;;5.10;4.18;;;7.60;90.10;;;;;;5019293;28;20053;-77
2022/04/05 00:21:54;;;;;;;4.18;3.50;;;7.50;89.40;;;;;;5019707;28;20044;-77
2022/04/05 00:24:20;;;;;;;7.68;3.85;;;7.40;91.60;;;;;;5017014;28;20395;-77
2022/04/05 00:26:47;;;;;;;9.05;4.32;;;7.30;93.00;;;;;;5012172;28;20518;-77
2022/04/05 00:29:13;;;;;;;5.80;5.25;;;7.20;93.70;;;;;;5014090;28;20045;-76
2022/04/05 00:31:39;;;;;;;8.77;6.00;;;7.00;96.00;;;;;;5015548;28;20053;-76
2022/04/05 00:34:06;;;;;;;8.38;7.40;;;6.90;98.00;;;;;;5015520;28;20391;-77
2022/04/05 00:36:32;;;;;;;6.00;4.80;;;6.80;98.90;;;;;;5012735;28;20034;-77
2022/04/05 00:38:58;;;;;;;5.80;5.30;;;6.80;99.00;;;;;;5018225;28;20337;-78
2022/04/05 00:41:24;;;;;;;11.02;7.50;;;6.70;99.10;;;;;;5016234;28;20038;-77
2022/04/05 00:43:50;;;;;;;9.40;7.00;;;6.80;99.90;;;;;;5016890;28;20045;-77
2022/04/05 00:46:17;;;;;;;5.38;3.85;;;6.70;99.90;;;;;;5009696;28;20032;-77
2022/04/05 00:48:57;;;;;;;3.67;3.38;;;6.80;96.80;;;;;;5013202;28;20030;-77
2022/04/05 00:51:24;;;;;;;6.72;4.22;;;6.90;95.20;;;;;;5009471;28;20049;-77
2022/04/05 00:53:53;;;;;;;4.38;3.97;;;6.90;97.10;;;;;;5006251;28;20050;-77
2022/04/05 00:56:21;;;;;;;4.88;3.95;;;6.90;96.90;;;;;;5012934;28;20036;-77
2022/04/05 00:58:49;;;;;;;4.40;3.97;;;6.90;97.00;;;;;;5014582;28;20030;-77
2022/04/05 01:01:18;;;;;;;3.72;3.40;;;6.80;96.70;;;;;;5012302;28;20395;-77
2022/04/05 01:03:49;;;;;;;4.60;3.80;;;6.90;97.30;;;;;;5012791;28;20395;-78
2022/04/05 01:06:16;;;;;;;;;;;6.90;95.40;;;;;;5021198;28;20046;-77
2022/04/05 01:08:46;;;;;;;5.07;4.63;;;7.00;96.00;;;;;;5012753;28;19909;-77
2022/04/05 01:11:12;;;;;;;9.10;3.78;;;6.90;95.80;;;;;;5012019;28;20037;-77
2022/04/05 01:13:38;;;;;;;3.60;3.22;;;7.00;95.40;;;;;;5013582;28;20038;-77
2022/04/05 01:16:05;;;;;;;4.25;3.40;;;7.00;94.90;;;;;;5012272;28;20037;-78
2022/04/05 01:18:33;;;;;;;4.05;3.10;;;7.10;95.00;;;;;;5011930;28;20026;-77
2022/04/05 01:20:59;;;;;;;5.22;4.05;;;7.10;95.60;;;;;;5012661;28;20033;-79
2022/04/05 01:23:26;;;;;;;3.70;3.17;;;7.10;94.80;;;;;;5007948;28;20042;-77
2022/04/05 01:25:52;;;;;;;5.47;3.42;;;7.10;95.40;;;;;;5012617;28;20033;-77
2022/04/05 01:28:23;;;;;;;5.82;3.65;;;7.10;96.30;;;;;;5014368;28;20498;-77
2022/04/05 01:30:50;;;;;;;4.55;3.92;;;7.10;95.10;;;;;;5015371;28;20076;-77
2022/04/05 01:33:16;;;;;;;3.92;2.58;;;7.10;95.20;;;;;;5014355;28;20057;-77
2022/04/05 01:35:42;;;;;;;3.35;2.97;;;7.10;95.90;;;;;;5014132;28;20049;-77
2022/04/05 01:38:10;;;;;;;4.05;3.05;;;7.10;96.00;;;;;;5032745;28;20030;-78
2022/04/05 01:40:36;;;;;;;7.65;3.58;;;7.10;97.00;;;;;;5028729;28;20037;-79
2022/04/05 01:43:02;;;;;;;3.67;3.28;;;7.00;97.60;;;;;;5015354;28;20034;-77
2022/04/05 01:45:29;;;;;;;3.22;2.92;;;7.00;98.80;;;;;;5032576;28;20037;-77
2022/04/05 01:47:55;;;;;;;2.95;2.58;;;6.90;97.80;;;;;;5028031;28;20033;-76
2022/04/05 01:50:21;;;;;;;3.67;2.75;;;6.90;98.10;;;;;;5014873;28;20380;-77
2022/04/05 01:52:47;;;;;;;4.30;3.03;;;6.90;99.40;;;;;;5032610;28;20064;-77
2022/04/05 01:55:13;;;;;;;5.35;2.92;;;6.90;99.90;;;;;;5031170;28;20025;-77
2022/04/05 01:57:40;;;;;;;3.08;2.42;;;6.90;99.10;;;;;;5028621;28;20017;-77
2022/04/05 02:00:14;;;;;;;4.10;2.95;;;6.90;98.60;;;;;;5028747;28;20034;-77
2022/04/05 02:02:43;;;;;;;4.63;2.42;;;6.90;99.20;;;;;;5030261;28;20037;-77
2022/04/05 02:05:13;;;;;;;3.45;3.15;;;6.90;99.60;;;;;;5034102;28;20033;-76
2022/04/05 02:07:39;;;;;;;3.42;3.05;;;6.90;99.90;;;;;;5037057;28;20451;-77
2022/04/05 02:10:06;;;;;;;2.92;2.58;;;6.90;99.90;;;;;;5014590;28;20068;-77
2022/04/05 02:12:33;;;;;;;3.00;2.60;;;6.90;99.90;;;;;;5015684;28;20056;-75
2022/04/05 02:15:11;;;;;;;3.53;3.22;;;6.90;99.40;;;;;;4999075;28;20485;-78
2022/04/05 02:17:46;;;;;;;5.40;2.70;;;6.90;99.90;;;;;;5019887;28;20493;-78
2022/04/05 02:20:18;;;;;;;3.65;3.13;;;6.90;99.80;;;;;;5021513;28;20037;-78
2022/04/05 02:22:44;;;;;;;3.85;2.65;;;6.90;99.90;;;;;;5000264;28;20049;-76
2022/04/05 02:25:20;;;;;;;4.20;3.03;;;7.00;99.70;;;;;;5012566;28;20045;-77
2022/04/05 02:27:47;;;;;;;3.92;2.65;;;6.90;99.90;;;;;;5010331;28;20038;-77
2022/04/05 02:30:19;;;;;;;2.40;2.20;;;6.90;99.90;;;;;;5010482;28;20050;-76
2022/04/05 02:32:48;;;;;;;5.55;3.22;;;6.90;99.90;;;;;;5030421;28;20072;-76
2022/04/05 02:35:15;;;;;;;3.30;2.53;;;6.90;99.90;;;;;;5012610;28;20490;-77
2022/04/05 02:37:41;;;;;;;4.07;2.55;;;6.90;99.90;;;;;;5014448;28;20052;-77
2022/04/05 02:40:11;;;;;;;2.25;2.05;;;6.90;99.90;;;;;;5000082;28;20063;-77
2022/04/05 02:42:39;;;;;;;2.90;2.63;;;6.90;99.90;;;;;;5013948;28;20041;-77
2022/04/05 02:45:08;;;;;;;4.07;2.75;;;6.80;99.90;;;;;;4996510;28;20045;-78
2022/04/05 02:47:34;;;;;;;3.15;2.70;;;6.90;99.90;;;;;;5013403;28;20041;-78
2022/04/05 02:50:01;;;;;;;4.07;2.72;;;6.90;99.90;;;;;;4997044;28;20052;-78
2022/04/05 02:52:29;;;;;;;3.42;2.40;;;6.90;99.90;;;;;;5030477;28;20049;-77
2022/04/05 02:55:00;;;;;;;2.90;2.33;;;6.90;99.90;;;;;;5012033;28;20379;-79
2022/04/05 02:57:28;;;;;;;3.17;2.25;;;6.90;99.90;;;;;;5013568;28;20049;-77
2022/04/05 02:59:57;;;;;;;4.82;2.78;;;6.90;99.90;;;;;;4997295;28;20041;-81
2022/04/05 03:02:25;;;;;;;3.00;2.30;;;6.90;99.90;;;;;;5026356;28;20048;-77
2022/04/05 03:04:52;;;;;;;3.05;2.65;;;6.80;99.90;;;;;;5012257;28;20045;-77
2022/04/05 03:07:19;;;;;;;4.55;2.80;;;6.70;99.90;;;;;;5013539;28;20574;-77
2022/04/05 03:09:46;;;;;;;4.85;2.90;;;6.70;99.90;;;;;;5021780;28;20037;-77
2022/04/05 03:12:15;;;;;;;3.22;2.90;;;6.60;99.90;;;;;;5026663;28;20037;-77
2022/04/05 03:14:45;;;;;;;2.40;2.20;;;6.60;99.90;;;;;;5010524;28;20041;-77
2022/04/05 03:17:13;;;;;;;2.53;2.33;;;6.60;99.90;;;;;;4997616;28;20474;-78
2022/04/05 03:19:41;;;;;;;4.60;2.83;;;6.60;99.90;;;;;;5014005;28;20056;-77
2022/04/05 03:22:10;;;;;;;3.28;2.97;;;6.50;99.90;;;;;;5033326;28;20033;-77
2022/04/05 03:24:36;;;;;;;3.45;2.60;;;6.60;99.90;;;;;;5024880;28;20029;-77
2022/04/05 03:27:03;;;;;;;2.88;2.45;;;6.60;99.90;;;;;;5012925;28;20044;-79
2022/04/05 03:29:30;;;;;;;3.20;2.40;;;6.60;99.90;;;;;;5013122;28;20052;-79
2022/04/05 03:31:57;;;;;;;3.28;2.97;;;6.60;99.90;;;;;;5027266;28;20037;-77
2022/04/05 03:34:24;;;;;;;2.78;2.40;;;6.60;99.90;;;;;;5030013;28;20049;-78
2022/04/05 03:36:51;;;;;;;3.75;2.80;;;6.60;99.90;;;;;;4997635;28;20041;-77
2022/04/05 03:39:18;;;;;;;3.13;2.17;;;6.60;99.90;;;;;;5031379;28;20033;-78
2022/04/05 03:41:44;;;;;;;2.28;1.95;;;6.60;99.90;;;;;;5002313;28;20042;-78
2022/04/05 03:44:11;;;;;;;2.00;1.75;;;6.60;99.90;;;;;;5029156;28;20036;-79
2022/04/05 03:46:41;;;;;;;2.63;2.40;;;6.60;99.90;;;;;;5011751;28;20046;-78
2022/04/05 03:49:08;;;;;;;3.53;2.58;;;6.60;99.90;;;;;;5016177;28;20580;-77
2022/04/05 03:51:34;;;;;;;2.15;1.98;;;6.60;99.90;;;;;;5015014;28;20042;-78
2022/04/05 03:54:03;;;;;;;3.35;2.75;;;6.60;99.90;;;;;;5016343;28;20050;-78
2022/04/05 03:56:33;;;;;;;3.35;2.20;;;6.60;99.90;;;;;;4997630;28;20037;-77
2022/04/05 03:59:03;;;;;;;3.05;1.98;;;6.70;99.90;;;;;;4998511;28;20060;-78
2022/04/05 04:01:30;;;;;;;2.83;2.38;;;6.60;99.90;;;;;;5017351;28;20479;-77
2022/04/05 04:03:58;;;;;;;4.78;2.15;;;6.60;99.90;;;;;;5016815;28;20048;-77
2022/04/05 04:06:25;;;;;;;3.22;2.33;;;6.60;99.90;;;;;;5015123;28;20045;-77
2022/04/05 04:08:53;;;;;;;1.98;1.60;;;6.60;99.90;;;;;;5017000;28;20052;-76
2022/04/05 04:11:20;;;;;;;2.42;2.13;;;6.60;99.90;;;;;;5016522;28;20048;-89
2022/04/05 04:13:48;;;;;;;3.60;3.30;;;6.60;99.90;;;;;;5016643;28;20321;-88
2022/04/05 04:16:18;;;;;;;1.90;1.80;;;6.60;99.90;;;;;;5014794;28;20072;-89
2022/04/05 04:18:45;;;;;;;2.38;2.17;;;6.60;99.90;;;;;;5017990;28;20041;-89
2022/04/05 04:21:11;;;;;;;3.17;2.60;;;6.60;99.90;;;;;;5014224;28;20038;-91
2022/04/05 04:23:39;;;;;;;3.45;2.33;;;6.50;99.90;;;;;;5006127;28;20045;-79
2022/04/05 04:26:06;;;;;;;3.58;3.22;;;6.50;99.90;;;;;;5032784;28;20060;-79
2022/04/05 04:28:33;;;;;;;4.95;2.65;;;6.50;99.90;;;;;;5017031;28;20049;-78
2022/04/05 04:30:59;;;;;;;4.70;2.50;;;6.50;99.90;;;;;;5016366;28;20053;-79
2022/04/05 04:33:25;;;;;;;3.25;2.72;;;6.50;99.90;;;;;;5033658;28;20055;-78
2022/04/05 04:35:53;;;;;;;2.08;1.88;;;6.50;99.90;;;;;;5028662;28;20044;-79
2022/04/05 04:38:20;;;;;;;3.30;2.97;;;6.50;99.90;;;;;;5016874;28;20037;-79
2022/04/05 04:40:48;;;;;;;3.65;3.13;;;6.50;99.90;;;;;;5037839;28;20040;-79
2022/04/05 04:43:16;;;;;;;2.70;2.50;;;6.50;99.90;;;;;;5034968;28;20041;-78
2022/04/05 04:45:42;;;;;;;2.70;2.13;;;6.60;99.90;;;;;;5012537;28;20046;-78
2022/04/05 04:48:08;;;;;;;2.20;2.00;;;6.60;99.90;;;;;;5031327;28;20029;-78
2022/04/05 04:50:35;;;;;;;2.70;2.50;;;6.60;99.90;;;;;;5034677;28;20025;-78
2022/04/05 04:53:01;;;;;;;4.22;2.95;;;6.50;99.90;;;;;;5015784;28;20053;-79
2022/04/05 04:55:28;;;;;;;2.58;2.38;;;6.50;99.90;;;;;;5012586;28;20375;-78
2022/04/05 04:57:54;;;;;;;2.85;2.60;;;6.50;99.90;;;;;;5034039;28;20026;-78
2022/04/05 05:00:20;;;;;;;3.38;2.50;;;6.50;99.90;;;;;;5033664;28;20497;-78
2022/04/05 05:02:47;;;;;;;3.72;2.85;;;6.40;99.90;;;;;;5015388;28;20037;-78
2022/04/05 05:05:21;;;;;;;3.45;2.92;;;6.50;99.90;;;;;;5032133;28;20026;-78
2022/04/05 05:07:48;;;;;;;2.60;2.40;;;6.40;99.90;;;;;;5029790;28;20498;-79
2022/04/05 05:10:15;;;;;;;3.53;3.22;;;6.40;99.90;;;;;;5013810;28;20049;-78
2022/04/05 05:12:42;;;;;;;4.03;3.28;;;6.40;99.90;;;;;;5029208;28;20034;-79
2022/04/05 05:15:15;;;;;;;3.70;3.40;;;6.40;99.90;;;;;;5027832;28;20030;-79
2022/04/05 05:17:42;;;;;;;4.47;3.97;;;6.40;99.90;;;;;;5015837;28;20030;-79
2022/04/05 05:20:09;;;;;;;5.25;3.95;;;6.40;99.90;;;;;;4999355;28;20045;-79
2022/04/05 05:22:36;;;;;;;5.10;3.88;;;6.40;99.90;;;;;;5032447;28;20025;-79
2022/04/05 05:25:03;;;;;;;4.13;3.47;;;6.40;99.90;;;;;;5028017;28;20474;-80
2022/04/05 05:27:29;;;;;;;5.22;4.63;;;6.40;99.90;;;;;;5030293;28;20143;-79
2022/04/05 05:29:56;;;;;;;4.88;4.43;;;6.40;99.90;;;;;;5033048;28;20064;-79
2022/04/05 05:32:22;;;;;;;5.40;4.60;;;6.40;99.90;;;;;;5035772;28;20036;-79
2022/04/05 05:34:49;;;;;;;4.85;4.35;;;6.40;99.90;;;;;;5034121;28;20041;-78
2022/04/05 05:37:15;;;;;;;5.15;4.15;;;6.40;99.90;;;;;;5033746;28;20030;-78
2022/04/05 05:39:41;;;;;;;6.88;5.00;;;6.40;99.90;;;;;;5027607;28;20383;-79
2022/04/05 05:42:08;;;;;;;8.43;5.07;;;6.40;99.90;;;;;;5011211;28;20037;-79
2022/04/05 05:44:35;;;;;;;5.53;5.03;;;6.40;99.90;;;;;;5032032;28;20033;-79
2022/04/05 05:47:04;;;;;;;5.20;4.65;;;6.40;99.90;;;;;;5033305;28;20030;-80
2022/04/05 05:49:31;;;;;;;4.63;3.70;;;6.40;99.90;;;;;;5015379;28;20467;-79
2022/04/05 05:51:57;;;;;;;4.47;4.07;;;6.30;99.90;;;;;;5033302;28;20455;-79
2022/04/05 05:54:23;;;;;;;5.95;4.90;;;6.30;99.90;;;;;;5030691;28;20049;-80
2022/04/05 05:56:50;;;;;;;5.60;5.00;;;6.30;99.90;;;;;;5033491;28;20029;-78
2022/04/05 05:59:16;;;;;;;7.15;4.43;;;6.30;99.90;;;;;;5030994;28;20034;-79
2022/04/05 06:01:42;;;;;;;7.13;4.75;;;6.20;99.90;;;;;;5031379;28;20037;-78
2022/04/05 06:04:08;;;;;;;5.20;4.65;;;6.20;99.90;;;;;;5032438;28;20030;-79
2022/04/05 06:06:34;;;;;;;10.98;5.57;;;6.20;99.90;;;;;;5030077;28;20030;-79
2022/04/05 06:09:01;;;;;;;6.75;5.53;;;6.20;99.90;;;;;;5032667;28;20045;-79
2022/04/05 06:11:27;;;;;;;6.57;5.97;;;6.20;99.90;;;;;;5032365;28;20033;-79
2022/04/05 06:13:53;;;;;;;5.63;5.03;;;6.20;99.90;;;;;;5032088;28;20036;-80
2022/04/05 06:16:20;;;;;;;7.32;5.40;;;6.20;99.90;;;;;;5013891;28;20044;-80
2022/04/05 06:18:47;;;;;;;6.22;4.63;;;6.30;99.90;;;;;;5015063;28;20033;-79
2022/04/05 06:21:17;;;;;;;4.75;4.35;;;6.40;99.90;;;;;;5031250;28;20033;-80
2022/04/05 06:23:43;;;;;;;6.40;5.65;;;6.40;99.90;;;;;;5032751;28;20048;-79
2022/04/05 06:26:11;;;;;;;6.20;4.78;;;6.40;99.90;;;;;;5029836;28;20053;-79
2022/04/05 06:28:38;;;;;;;7.30;5.68;;;6.40;99.90;;;;;;5029498;28;20040;-78
2022/04/05 06:31:04;;;;;;;6.88;4.50;;;6.40;99.90;;;;;;5032067;28;20108;-79
2022/04/05 06:33:31;;;;;;;12.02;5.45;;;6.40;99.90;;;;;;5032699;28;20064;-79
2022/04/05 06:35:58;;;;;;;8.00;5.72;;;6.30;99.90;;;;;;5008366;28;20030;-79
2022/04/05 06:38:25;;;;;;;7.75;5.00;;;6.30;99.90;;;;;;5012246;28;20034;-79
2022/04/05 06:40:54;;;;;;;9.02;4.72;;;6.30;99.90;;;;;;5016724;28;20033;-79
2022/04/05 06:43:25;;;;;;;6.40;5.55;;;6.20;99.90;;;;;;5027751;28;20030;-79
2022/04/05 06:45:51;;;;;;;5.18;4.68;;;6.30;99.90;;;;;;4998208;28;20045;-78
2022/04/05 06:48:18;;;;;;;5.40;4.85;;;6.30;99.90;;;;;;5031694;28;20045;-79
2022/04/05 06:50:46;;;;;;;5.30;4.78;;;6.30;99.90;;;;;;5032787;28;20029;-79
2022/04/05 06:53:13;;;;;;;6.57;5.05;;;6.30;99.90;;;;;;5031938;28;20029;-79
2022/04/05 06:55:39;;;;;;;7.53;5.13;;;6.30;99.90;;;;;;5025623;28;20386;-79
2022/04/05 06:58:06;;;;;;;8.65;5.47;;;6.30;99.90;;;;;;5032250;28;20478;-79
2022/04/05 07:00:35;;;;;;;7.75;6.05;;;6.30;99.90;;;;;;5032526;28;20045;-80
2022/04/05 07:03:02;;;;;;;5.80;5.30;;;6.30;99.90;;;;;;5032166;28;20403;-80
2022/04/05 07:05:29;;;;;;;5.22;4.72;;;6.30;99.90;;;;;;5013167;28;20033;-79
2022/04/05 07:07:55;;;;;;;6.32;5.05;;;6.20;99.90;;;;;;5031077;28;20026;-79
2022/04/05 07:10:22;;;;;;;5.45;4.95;;;6.20;99.90;;;;;;5013463;28;20497;-79
2022/04/05 07:12:48;;;;;;;7.90;5.78;;;6.20;99.90;;;;;;5032513;28;20195;-79
2022/04/05 07:15:15;;;;;;;4.88;4.47;;;6.20;99.90;;;;;;5030549;28;20049;-80
2022/04/05 07:17:43;;;;;;;7.45;6.18;;;6.20;99.90;;;;;;5033033;28;20042;-78
2022/04/05 07:20:10;;;;;;;6.65;5.18;;;6.20;99.90;;;;;;5035940;28;20033;-78
2022/04/05 07:22:44;;;;;;;5.78;5.20;;;6.20;99.90;;;;;;5019140;28;20037;-78
2022/04/05 07:25:10;;;;;;;8.75;5.30;;;6.20;99.90;;;;;;5033023;28;20025;-79
2022/04/05 07:27:36;;;;;;;8.48;5.05;;;6.20;99.90;;;;;;5035998;28;20042;-78
2022/04/05 07:30:03;;;;;;;7.90;5.57;;;6.20;99.90;;;;;;5035501;28;20040;-78
2022/04/05 07:32:36;;;;;;;5.82;5.30;;;6.20;99.90;;;;;;5018877;28;20034;-78
2022/04/05 07:35:02;;;;;;;5.47;5.00;;;6.20;99.90;;;;;;5027353;28;20046;-79
2022/04/05 07:37:30;;;;;;;6.35;5.78;;;6.30;99.90;;;;;;5036256;28;20033;-78
2022/04/05 07:40:00;;;;;;;7.70;6.65;;;6.20;99.90;;;;;;5035723;28;20034;-78
2022/04/05 07:42:27;;;;;;;7.68;6.82;;;6.20;99.90;;;;;;5017785;28;20475;-78
2022/04/05 07:44:53;;;;;;;7.53;6.93;;;6.20;99.90;;;;;;5034332;28;20066;-78
2022/04/05 07:47:19;;;;;;;6.35;5.85;;;6.20;99.90;;;;;;5015687;28;20045;-78
2022/04/05 07:49:46;;;;;;;8.43;7.63;;;6.20;99.90;;;;;;5034996;28;20045;-78
2022/04/05 07:52:12;;;;;;;7.50;6.78;;;6.30;99.90;;;;;;5029258;28;20037;-78
2022/04/05 07:54:38;;;;;;;8.50;7.40;;;6.30;99.90;;;;;;5036856;28;20037;-77
2022/04/05 07:57:08;;;;;;;9.25;7.97;;;6.30;99.90;;;;;;5018524;28;20053;-79
2022/04/05 07:59:34;;;;;;;7.97;6.90;;;6.40;99.90;;;;;;5031220;28;20037;-79
2022/04/05 08:02:01;;;;;;;10.65;7.30;;;6.40;99.90;;;;;;5019333;28;20029;-79
2022/04/05 08:04:27;;;;;;;9.93;8.05;;;6.40;99.90;;;;;;5015785;28;20037;-78
2022/04/05 08:06:53;;;;;;;7.72;6.35;;;6.50;99.90;;;;;;5032143;28;20045;-79
2022/04/05 08:09:19;;;;;;;8.48;7.07;;;6.50;99.90;;;;;;5035893;28;20034;-78
2022/04/05 08:11:45;;;;;;;6.72;5.95;;;6.60;99.90;;;;;;5030880;28;20034;-79
2022/04/05 08:14:12;;;;;;;6.82;5.93;;;6.60;99.90;;;;;;5033478;28;20037;-79
2022/04/05 08:16:39;;;;;;;5.70;5.13;;;6.60;99.90;;;;;;5034555;28;20030;-79
2022/04/05 08:19:06;;;;;;;7.05;6.38;;;6.60;99.90;;;;;;5011669;28;20038;-80
2022/04/05 08:21:33;;;;;;;6.30;5.70;;;6.70;99.90;;;;;;5034097;28;20050;-78
2022/04/05 08:23:59;;;;;;;6.65;5.80;;;6.70;99.90;;;;;;5033739;28;20060;-79
2022/04/05 08:26:25;;;;;;;5.80;5.20;;;6.80;99.90;;;;;;5015756;28;20483;-78
2022/04/05 08:28:55;;;;;;;5.00;4.57;;;6.80;99.90;;;;;;5034949;28;20101;-79
2022/04/05 08:31:21;;;;;;;5.80;4.80;;;6.80;99.90;;;;;;5016171;28;20046;-79
2022/04/05 08:33:47;;;;;;;5.57;4.70;;;6.90;99.90;;;;;;5034944;28;20104;-79
2022/04/05 08:36:14;;;;;;;6.47;5.25;;;7.00;99.90;;;;;;5001042;28;20041;-78
2022/04/05 08:38:40;;;;;;;4.57;4.15;;;7.10;99.90;;;;;;5035243;28;20420;-78
2022/04/05 08:41:07;;;;;;;11.65;5.10;;;7.20;99.90;;;;;;5019365;28;20106;-78
2022/04/05 08:43:36;;;;;;;6.22;5.15;;;7.20;99.90;;;;;;5036597;28;20041;-79
2022/04/05 08:46:05;;;;;;;4.93;4.53;;;7.20;99.90;;;;;;5034352;28;20468;-79
2022/04/05 08:48:34;;;;;;;5.20;4.57;;;7.30;99.90;;;;;;5030513;28;20036;-79
2022/04/05 08:51:01;;;;;;;7.63;5.03;;;7.30;99.90;;;;;;5016872;28;20034;-79
2022/04/05 08:53:29;;;;;;;5.05;4.03;;;7.30;99.90;;;;;;5034862;28;20459;-79
2022/04/05 08:55:55;;;;;;;4.95;3.47;;;7.40;99.90;;;;;;5027539;28;20049;-79
2022/04/05 08:58:21;;;;;;;3.88;3.55;;;7.40;99.90;;;;;;5016058;28;20646;-78
2022/04/05 09:00:47;;;;;;;4.55;4.13;;;7.40;99.90;;;;;;5033154;28;20041;-79
2022/04/05 09:03:14;;;;;;;8.43;5.10;;;7.50;99.90;;;;;;5033895;28;20033;-80
2022/04/05 09:05:43;;;;;;;5.78;4.93;;;7.50;99.90;;;;;;5032868;28;20029;-78
2022/04/05 09:08:24;;;;;;;10.55;4.97;;;7.50;99.90;;;;;;5015334;28;20068;-80
2022/04/05 09:11:03;;;;;;;;;;;7.50;99.90;;;;;;5034275;28;20033;-79
2022/04/05 09:13:29;;;;;;;10.65;5.03;;;7.50;99.90;;;;;;5033380;28;19975;-79
2022/04/05 09:15:58;;;;;;;4.88;4.43;;;7.50;99.90;;;;;;5014121;28;20037;-79
2022/04/05 09:18:39;;;;;;;5.93;4.82;;;7.50;99.90;;;;;;5031869;28;20036;-80
2022/04/05 09:21:08;;;;;;;5.85;3.53;;;7.50;99.90;;;;;;5033498;28;20040;-79
2022/04/05 09:23:41;;;;;;;6.53;4.90;;;7.40;99.90;;;;;;5033382;28;20099;-79
2022/04/05 09:26:08;;;;;;;5.13;4.35;;;7.40;99.90;;;;;;5031978;28;20498;-79
2022/04/05 09:28:41;;;;;;;5.35;4.93;;;7.50;99.90;;;;;;5034669;28;20367;-78
2022/04/05 09:31:09;;;;;;;6.05;4.95;;;7.60;99.90;;;;;;5029340;28;20060;-78
2022/04/05 09:33:38;;;;;;;4.72;4.32;;;7.60;99.90;;;;;;5008595;28;20030;-79
2022/04/05 09:36:07;;;;;;;6.50;5.20;;;7.60;99.90;;;;;;5025563;28;20038;-79
2022/04/05 09:38:34;;;;;;;5.13;4.63;;;7.60;99.90;;;;;;5030375;28;20033;-78
2022/04/05 09:41:19;;;;;;;4.63;4.22;;;7.70;99.90;;;;;;5032886;28;20045;-78
2022/04/05 09:43:52;;;;;;;4.78;4.35;;;7.80;99.90;;;;;;5030270;28;20035;-79
2022/04/05 09:46:19;;;;;;;7.57;5.13;;;7.80;99.90;;;;;;5008675;28;20050;-79
2022/04/05 09:48:46;;;;;;;5.40;4.35;;;8.00;99.90;;;;;;5026688;28;20037;-79
2022/04/05 09:51:14;;;;;;;10.23;5.03;;;8.00;99.90;;;;;;5015171;28;20033;-79
2022/04/05 09:53:44;;;;;;;4.10;3.80;;;8.00;99.90;;;;;;5030426;28;20037;-79
2022/04/05 09:56:25;;;;;;;3.88;3.47;;;8.10;99.90;;;;;;5031993;28;20029;-78
2022/04/05 09:58:55;;;;;;;5.28;4.07;;;8.10;99.90;;;;;;5032726;28;20037;-79
2022/04/05 10:01:25;;;;;;;4.27;3.87;;;8.20;99.90;;;;;;5036563;28;20038;-79
2022/04/05 10:04:05;;;;;;;5.13;3.33;;;8.40;99.90;;;;;;5032894;28;20414;-79
2022/04/05 10:06:33;;;;;;;5.28;4.03;;;8.50;99.90;;;;;;5016473;28;20367;-78
2022/04/05 10:09:00;;;;;;;5.25;3.65;;;8.60;99.90;;;;;;5033437;28;20041;-78
2022/04/05 10:11:29;;;;;;;5.35;4.45;;;8.60;99.90;;;;;;5031676;28;20582;-78
2022/04/05 10:13:57;;;;;;;7.20;4.13;;;8.70;99.90;;;;;;5024813;28;20040;-79
2022/04/05 10:16:26;;;;;;;6.25;3.55;;;8.70;99.90;;;;;;5031356;28;20403;-78
2022/04/05 10:19:00;;;;;;;5.35;2.78;;;8.80;99.90;;;;;;5031713;28;20399;-79
2022/04/05 10:21:29;;;;;;;4.28;3.03;;;8.70;99.90;;;;;;5029815;28;20026;-77
2022/04/05 10:23:57;;;;;;;3.65;3.28;;;8.60;99.90;;;;;;5028648;28;20045;-77
2022/04/05 10:26:28;;;;;;;3.85;3.10;;;8.60;99.90;;;;;;5032562;28;20491;-77
2022/04/05 10:28:57;;;;;;;4.78;3.10;;;8.60;99.90;;;;;;5031225;28;20033;-78
2022/04/05 10:31:36;;;;;;;2.92;2.65;;;8.60;99.90;;;;;;5026656;28;20118;-77
2022/04/05 10:34:36;;;;;;;3.97;3.55;;;8.80;99.90;;;;;;5025217;28;20057;-78
2022/04/05 10:37:12;;;;;;;3.53;2.88;;;8.80;99.90;;;;;;5008233;28;20037;-78
2022/04/05 10:39:39;;;;;;;3.45;3.15;;;8.70;99.90;;;;;;5029122;28;20356;-77
2022/04/05 10:42:08;;;;;;;6.78;4.15;;;8.70;99.90;;;;;;5038001;28;20041;-77
2022/04/05 10:44:36;;;;;;;4.15;3.17;;;8.70;99.90;;;;;;5034147;28;20033;-77
2022/04/05 10:47:06;;;;;;;2.97;2.78;;;8.80;99.90;;;;;;5031416;28;20052;-77
2022/04/05 10:49:35;;;;;;;3.30;2.92;;;8.90;99.90;;;;;;5026832;28;20042;-77
2022/04/05 10:52:15;;;;;;;3.55;3.25;;;8.90;99.90;;;;;;5032932;28;20474;-77
2022/04/05 10:55:06;;;;;;;4.07;3.25;;;8.90;99.90;;;;;;5031568;28;20505;-77
2022/04/05 10:57:37;;;;;;;5.22;4.28;;;8.90;99.90;;;;;;5033659;28;20048;-78
2022/04/05 11:00:26;;;;;;;5.30;4.45;;;8.90;99.90;;;;;;5014107;28;20044;-77
2022/04/05 11:02:58;;;;;;;8.15;4.22;;;9.00;99.90;;;;;;5032067;28;20033;-78
2022/04/05 11:05:27;;;;;;;26.02;18.58;;;8.90;99.90;;;;;;5004393;28;20042;-79
2022/04/05 11:07:53;;;;;;;8.90;7.85;;;8.90;99.90;;;;;;5028823;28;20040;-78
2022/04/05 11:10:45;;;;;;;14.32;8.20;;;9.00;99.90;;;;;;5013997;28;20037;-78
2022/04/05 11:13:20;;;;;;;13.68;8.05;;;9.00;99.90;;;;;;5030647;28;20033;-78
2022/04/05 11:15:51;;;;;;;7.13;6.10;;;9.10;99.90;;;;;;5029216;28;20045;-79
2022/04/05 11:18:23;;;;;;;9.55;7.88;;;9.00;99.90;;;;;;5013767;28;20053;-77
2022/04/05 11:20:52;;;;;;;6.47;5.60;;;9.10;99.90;;;;;;5032197;28;20037;-77
2022/04/05 11:23:20;;;;;;;16.40;14.65;;;9.10;99.90;;;;;;5031563;28;20038;-78
2022/04/05 11:25:47;;;;;;;31.98;22.63;;;9.00;99.90;;;;;;5029838;28;20470;-78
2022/04/05 11:28:21;;;;;;;61.67;45.13;;;9.10;99.90;;;;;;5031787;28;20036;-77
2022/04/05 11:31:02;;;;;;;7.65;6.72;;;9.10;99.90;;;;;;5031801;28;20475;-77
2022/04/05 11:33:31;;;;;;;17.75;14.10;;;9.20;99.90;;;;;;5025468;28;20037;-77
2022/04/05 11:36:03;;;;;;;5.72;4.95;;;9.30;99.90;;;;;;5031112;28;20486;-78
2022/04/05 11:38:32;;;;;;;6.15;4.30;;;9.30;99.90;;;;;;5025280;28;20041;-77
2022/04/05 11:41:20;;;;;;;8.23;5.90;;;9.40;99.90;;;;;;5025344;28;20034;-77
2022/04/05 11:43:52;;;;;;;4.30;3.90;;;9.50;99.90;;;;;;5027899;28;20120;-78
2022/04/05 11:46:27;;;;;;;3.20;2.90;;;9.50;99.90;;;;;;5031545;28;20044;-78
2022/04/05 11:49:10;;;;;;;5.50;4.75;;;9.60;99.90;;;;;;5013780;28;20033;-77
2022/04/05 11:51:43;;;;;;;3.53;2.83;;;9.70;99.90;;;;;;5026065;28;20037;-81
2022/04/05 11:54:11;;;;;;;4.00;3.10;;;9.70;99.90;;;;;;5029508;28;20037;-80
2022/04/05 11:56:42;;;;;;;9.10;3.83;;;9.80;99.90;;;;;;5031267;28;20029;-79
2022/04/05 11:59:10;;;;;;;4.63;4.05;;;9.70;99.90;;;;;;5030735;28;20040;-78
2022/04/05 12:01:39;;;;;;;3.72;3.03;;;9.70;99.90;;;;;;5027778;28;20498;-80
2022/04/05 12:04:09;;;;;;;3.95;3.50;;;9.70;99.90;;;;;;5031850;28;20033;-80
2022/04/05 12:06:42;;;;;;;4.40;3.77;;;9.70;99.90;;;;;;5034707;28;20029;-80
2022/04/05 12:09:17;;;;;;;4.00;3.60;;;9.60;99.90;;;;;;5026551;28;20033;-80
2022/04/05 12:11:47;;;;;;;8.40;4.70;;;9.60;99.90;;;;;;5015170;28;20041;-80
2022/04/05 12:14:15;;;;;;;4.10;3.78;;;9.60;99.90;;;;;;5029649;28;20025;-80
2022/04/05 12:16:50;;;;;;;5.22;4.80;;;9.60;99.90;;;;;;5031400;28;20089;-80
2022/04/05 12:19:48;;;;;;;6.13;5.13;;;9.60;99.90;;;;;;5029229;28;20034;-80
2022/04/05 12:22:16;;;;;;;4.85;4.35;;;9.50;99.90;;;;;;5028069;28;20044;-80
2022/04/05 12:24:50;;;;;;;8.68;7.00;;;9.50;99.90;;;;;;5015166;28;20497;-80
2022/04/05 12:27:24;;;;;;;12.95;11.43;;;9.50;99.90;;;;;;5013406;28;20045;-80
2022/04/05 12:29:56;;;;;;;8.02;5.85;;;9.50;99.90;;;;;;5015383;28;20065;-79
2022/04/05 12:32:23;;;;;;;7.30;5.40;;;9.60;99.90;;;;;;5014074;28;20037;-80
2022/04/05 12:34:49;;;;;;;5.22;4.43;;;9.60;99.90;;;;;;5008816;28;20046;-79
2022/04/05 12:37:16;;;;;;;6.90;4.03;;;9.60;99.90;;;;;;5014823;28;20034;-80
2022/04/05 12:39:45;;;;;;;6.22;3.97;;;9.70;99.90;;;;;;5009377;28;20034;-79
2022/04/05 12:42:11;;;;;;;5.38;4.88;;;9.60;99.90;;;;;;5013699;28;20030;-80
2022/04/05 12:44:47;;;;;;;5.32;4.13;;;9.60;99.90;;;;;;5017289;28;20038;-79
2022/04/05 12:47:16;;;;;;;7.40;6.78;;;9.60;99.90;;;;;;5016947;28;20494;-79
2022/04/05 12:49:44;;;;;;;7.85;6.15;;;9.50;99.90;;;;;;5005429;28;20027;-80
2022/04/05 12:52:16;;;;;;;8.07;6.07;;;9.40;99.90;;;;;;5017153;28;20033;-79
2022/04/05 12:55:04;;;;;;;7.65;5.30;;;9.40;99.90;;;;;;5005391;28;20053;-79
2022/04/05 12:57:32;;;;;;;8.75;5.35;;;9.40;99.90;;;;;;5013099;28;20038;-79
2022/04/05 13:00:28;;;;;;;5.20;4.45;;;9.50;99.90;;;;;;5010965;28;20394;-79
2022/04/05 13:03:11;;;;;;;8.80;7.90;;;9.50;99.90;;;;;;5013138;28;20041;-80
2022/04/05 13:08:36;;;;;;;12.05;8.55;;;9.50;99.90;;;;;;5013255;28;20056;-79
2022/04/05 13:11:20;;;;;;;10.43;7.82;;;9.60;99.90;;;;;;5014285;28;20030;-79